createdAt,value
2022-08-03T00:02:25.726Z,100762.78
2022-08-03T00:04:57.215Z,100768.81
2022-08-03T00:07:31.668Z,100767.94
2022-08-03T00:10:03.147Z,100733.72
2022-08-03T00:12:34.557Z,100781.41
2022-08-03T00:15:11.273Z,100782.59
2022-08-03T00:17:52.360Z,100789.69
2022-08-03T00:20:25.631Z,100790.09
2022-08-03T00:22:57.034Z,100789.69
2022-08-03T00:25:28.879Z,100795.88
2022-08-03T00:28:00.211Z,100797.13
2022-08-03T00:30:31.519Z,100784.63
2022-08-03T00:33:03.502Z,100788.78
2022-08-03T00:35:50.170Z,100788.72
2022-08-03T00:38:23.220Z,100659.94
2022-08-03T00:40:53.883Z,100792.34
2022-08-03T00:43:29.163Z,100791.53
2022-08-03T00:46:01.437Z,100794.88
2022-08-03T00:48:33.753Z,100791.47
2022-08-03T00:51:05.567Z,100795.16
2022-08-03T00:53:38.930Z,100793.00
2022-08-03T00:56:10.254Z,100792.09
2022-08-03T00:58:41.622Z,100802.09
2022-08-03T01:01:13.920Z,100805.81
2022-08-03T01:03:45.475Z,100780.25
2022-08-03T01:06:25.781Z,100754.34
2022-08-03T01:09:24.550Z,100815.09
2022-08-03T01:12:31.164Z,100815.19
2022-08-03T01:15:41.923Z,100794.56
2022-08-03T01:18:42.508Z,100802.41
2022-08-03T01:21:28.633Z,100818.78
2022-08-03T01:24:36.181Z,100818.44
2022-08-03T01:27:30.588Z,100830.16
2022-08-03T01:30:02.893Z,100778.81
2022-08-03T01:33:09.739Z,100816.47
2022-08-03T01:35:53.372Z,100834.50
2022-08-03T01:38:29.137Z,100821.16
2022-08-03T01:41:04.957Z,100844.84
2022-08-03T01:44:01.242Z,100837.38
2022-08-03T01:46:29.743Z,100849.81
2022-08-03T01:49:09.349Z,100792.53
2022-08-03T01:52:03.550Z,100795.84
2022-08-03T01:54:39.781Z,100851.63
2022-08-03T01:57:13.225Z,100800.34
2022-08-03T01:59:46.222Z,100847.53
2022-08-03T02:02:33.412Z,100850.41
2022-08-03T02:05:10.766Z,100813.50
2022-08-03T02:07:44.566Z,100789.06
2022-08-03T02:10:34.314Z,100850.31
2022-08-03T02:13:09.848Z,100801.00
2022-08-03T02:15:43.285Z,100850.25
2022-08-03T02:18:16.208Z,100838.63
2022-08-03T02:20:48.531Z,100849.78
2022-08-03T02:23:20.840Z,100843.94
2022-08-03T02:25:58.275Z,100766.34
2022-08-03T02:28:44.877Z,100819.03
2022-08-03T02:31:21.305Z,100769.22
2022-08-03T02:33:59.559Z,100782.31
2022-08-03T02:36:38.750Z,100824.78
2022-08-03T02:39:13.610Z,100857.91
2022-08-03T02:41:50.892Z,100859.34
2022-08-03T02:44:27.173Z,100860.78
2022-08-03T02:47:03.880Z,100835.13
2022-08-03T02:49:50.633Z,100846.03
2022-08-03T02:52:26.023Z,100844.13
2022-08-03T02:55:01.190Z,100820.13
2022-08-03T02:57:35.674Z,100793.59
2022-08-03T03:00:09.802Z,100869.81
2022-08-03T03:02:43.995Z,100858.13
2022-08-03T03:05:53.402Z,100871.00
2022-08-03T03:08:18.707Z,100853.59
2022-08-03T03:10:53.312Z,100877.63
2022-08-03T03:13:28.269Z,100886.34
2022-08-03T03:16:04.567Z,100891.31
2022-08-03T03:18:36.770Z,100873.63
2022-08-03T03:21:11.743Z,100797.19
2022-08-03T03:23:44.084Z,100889.34
2022-08-03T03:26:17.610Z,100828.22
2022-08-03T03:28:49.778Z,100884.56
2022-08-03T03:31:21.114Z,100894.94
2022-08-03T03:33:53.055Z,100902.03
2022-08-03T03:36:24.575Z,100892.84
2022-08-03T03:38:56.088Z,100891.16
2022-08-03T03:41:28.503Z,100888.59
2022-08-03T03:44:05.548Z,100885.53
2022-08-03T03:46:36.908Z,100881.50
2022-08-03T03:49:09.224Z,100882.09
2022-08-03T03:51:40.731Z,100877.25
2022-08-03T03:54:12.081Z,100871.00
2022-08-03T03:56:43.509Z,100873.50
2022-08-03T03:59:15.296Z,100863.47
2022-08-03T04:01:47.060Z,100842.22
2022-08-03T04:04:47.836Z,100832.63
2022-08-03T04:07:38.400Z,100832.41
2022-08-03T04:10:38.577Z,100837.38
2022-08-03T04:13:14.245Z,100839.03
2022-08-03T04:15:47.395Z,100836.09
2022-08-03T04:18:20.617Z,100771.88
2022-08-03T04:20:53.955Z,100759.38
2022-08-03T04:23:28.889Z,100811.88
2022-08-03T04:26:02.942Z,100738.47
2022-08-03T04:28:36.459Z,100808.00
2022-08-03T04:31:09.893Z,100740.03
2022-08-03T04:33:42.791Z,100798.53
2022-08-03T04:36:19.656Z,100726.81
2022-08-03T04:39:09.030Z,100776.56
2022-08-03T04:42:06.994Z,100749.28
2022-08-03T04:44:34.073Z,100772.06
2022-08-03T04:47:05.565Z,100779.06
2022-08-03T04:49:39.830Z,100753.88
2022-08-03T04:52:12.230Z,100763.44
2022-08-03T04:54:50.046Z,100717.88
2022-08-03T04:57:23.640Z,100755.41
2022-08-03T05:00:02.012Z,100748.22
2022-08-03T05:02:36.601Z,100736.75
2022-08-03T05:05:08.495Z,100721.28
2022-08-03T05:07:42.468Z,100744.47
2022-08-03T05:10:16.330Z,100730.03
2022-08-03T05:12:50.134Z,100726.38
2022-08-03T05:15:22.090Z,100715.97
2022-08-03T05:17:54.032Z,100713.59
2022-08-03T05:20:25.567Z,100712.53
2022-08-03T05:22:57.559Z,100712.66
2022-08-03T05:25:28.638Z,100698.03
2022-08-03T05:27:59.899Z,100677.47
2022-08-03T05:30:34.068Z,100686.88
2022-08-03T05:33:06.425Z,100660.06
2022-08-03T05:36:01.125Z,100678.66
2022-08-03T05:38:34.298Z,100667.97
2022-08-03T05:41:22.442Z,100657.22
2022-08-03T05:43:56.702Z,100662.84
2022-08-03T05:46:28.319Z,100659.66
2022-08-03T05:49:00.338Z,100651.97
2022-08-03T05:51:33.019Z,100627.56
2022-08-03T05:54:04.317Z,100643.94
2022-08-03T05:56:35.672Z,100611.38
2022-08-03T05:59:28.746Z,100621.91
2022-08-03T06:01:58.336Z,100625.81
2022-08-03T06:04:29.795Z,100607.38
2022-08-03T06:07:01.130Z,100602.50
2022-08-03T06:10:36.449Z,100575.16
2022-08-03T06:12:27.225Z,100590.91
2022-08-03T06:14:59.083Z,100580.59
2022-08-03T06:17:30.463Z,100579.28
2022-08-03T06:20:09.652Z,100566.06
2022-08-03T06:22:50.943Z,100564.75
2022-08-03T06:25:32.299Z,100563.66
2022-08-03T06:28:03.631Z,100562.94
2022-08-03T06:30:35.090Z,100566.22
2022-08-03T06:33:08.340Z,100550.47
2022-08-03T06:35:41.600Z,100559.53
2022-08-03T06:38:16.061Z,100535.72
2022-08-03T06:40:47.284Z,100545.69
2022-08-03T06:43:22.161Z,100542.78
2022-08-03T06:45:53.494Z,100539.03
2022-08-03T06:48:25.188Z,100505.03
2022-08-03T06:50:56.521Z,100523.75
2022-08-03T06:53:28.148Z,100518.97
2022-08-03T06:56:00.002Z,100514.34
2022-08-03T06:58:30.645Z,100500.59
2022-08-03T07:01:02.361Z,100504.88
2022-08-03T07:03:34.096Z,100506.00
2022-08-03T07:06:05.662Z,100511.19
2022-08-03T07:08:37.228Z,100505.50
2022-08-03T07:11:09.468Z,100499.56
2022-08-03T07:13:42.760Z,100486.03
2022-08-03T07:16:14.178Z,100477.41
2022-08-03T07:18:45.573Z,100469.72
2022-08-03T07:21:18.436Z,100468.66
2022-08-03T07:23:49.670Z,100472.00
2022-08-03T07:26:21.000Z,100476.13
2022-08-03T07:28:52.465Z,100464.47
2022-08-03T07:31:23.769Z,100460.69
2022-08-03T07:33:55.412Z,100457.44
2022-08-03T07:36:26.628Z,100458.03
2022-08-03T07:38:59.645Z,100456.38
2022-08-03T07:41:31.229Z,100458.09
2022-08-03T07:44:02.560Z,100406.47
2022-08-03T07:46:34.897Z,100455.94
2022-08-03T07:49:06.812Z,100452.72
2022-08-03T07:51:38.740Z,100443.91
2022-08-03T07:54:11.749Z,100469.63
2022-08-03T07:56:43.893Z,100463.91
2022-08-03T07:59:15.297Z,100457.06
2022-08-03T08:01:47.043Z,100462.56
2022-08-03T08:04:18.286Z,100462.28
2022-08-03T08:06:49.872Z,100465.06
2022-08-03T08:09:21.235Z,100460.97
2022-08-03T08:11:52.545Z,100453.38
2022-08-03T08:14:23.805Z,100456.41
2022-08-03T08:16:55.237Z,100458.91
2022-08-03T08:19:26.512Z,100446.94
2022-08-03T08:22:02.980Z,100455.69
2022-08-03T08:24:35.516Z,100439.91
2022-08-03T08:27:10.157Z,100442.13
2022-08-03T08:29:47.711Z,100443.75
2022-08-03T08:32:27.099Z,100423.63
2022-08-03T08:34:59.307Z,100423.63
2022-08-03T08:37:30.660Z,100412.44
2022-08-03T08:40:02.237Z,100425.25
2022-08-03T08:42:34.447Z,100435.63
2022-08-03T08:45:10.646Z,100433.72
2022-08-03T08:47:51.015Z,100375.31
2022-08-03T08:50:27.636Z,100454.72
2022-08-03T08:53:05.237Z,100456.81
2022-08-03T08:55:59.161Z,100472.72
2022-08-03T08:58:36.067Z,100426.06
2022-08-03T09:01:07.688Z,100478.72
2022-08-03T09:03:39.295Z,100475.44
2022-08-03T09:06:10.642Z,100482.53
2022-08-03T09:08:42.214Z,100485.50
2022-08-03T09:11:13.708Z,100493.13
2022-08-03T09:13:46.183Z,100500.19
2022-08-03T09:16:22.467Z,100471.88
2022-08-03T09:18:56.247Z,100489.88
2022-08-03T09:21:34.539Z,100541.31
2022-08-03T09:24:16.391Z,100479.56
2022-08-03T09:26:54.035Z,100475.44
2022-08-03T09:29:25.494Z,100539.38
2022-08-03T09:32:06.364Z,100483.84
2022-08-03T09:34:38.331Z,100545.84
2022-08-03T09:37:17.436Z,100572.22
2022-08-03T09:39:49.652Z,100550.09
2022-08-03T09:42:24.220Z,100555.31
2022-08-03T09:44:56.424Z,100541.53
2022-08-03T09:47:32.447Z,100456.09
2022-08-03T09:50:08.776Z,100542.06
2022-08-03T09:52:49.772Z,100466.97
2022-08-03T09:56:33.878Z,100566.13
2022-08-03T09:58:16.394Z,100560.59
2022-08-03T10:00:58.840Z,100586.13
2022-08-03T10:03:32.723Z,100535.69
2022-08-03T10:06:20.782Z,100572.28
2022-08-03T10:09:11.600Z,100601.50
2022-08-03T10:11:44.723Z,100598.59
2022-08-03T10:14:24.035Z,100587.16
2022-08-03T10:16:55.330Z,100592.47
2022-08-03T10:19:27.316Z,100597.22
2022-08-03T10:22:01.765Z,100602.31
2022-08-03T10:24:37.551Z,100612.81
2022-08-03T10:27:10.186Z,100548.25
2022-08-03T10:29:50.617Z,100613.59
2022-08-03T10:32:32.273Z,100539.28
2022-08-03T10:35:21.010Z,100597.31
2022-08-03T10:38:02.396Z,100583.38
2022-08-03T10:40:53.618Z,100569.22
2022-08-03T10:44:21.671Z,100564.28
2022-08-03T10:46:53.855Z,100584.22
2022-08-03T10:49:34.334Z,100605.38
2022-08-03T10:52:12.932Z,100641.53
2022-08-03T10:55:16.662Z,100662.91
2022-08-03T10:57:49.861Z,100614.59
2022-08-03T11:00:29.639Z,100664.25
2022-08-03T11:03:12.718Z,100609.50
2022-08-03T11:05:55.788Z,100679.72
2022-08-03T11:08:32.005Z,100685.81
2022-08-03T11:11:29.953Z,100688.94
2022-08-03T11:14:09.754Z,100688.06
2022-08-03T11:16:44.388Z,100638.38
2022-08-03T11:19:19.353Z,100680.28
2022-08-03T11:21:55.327Z,100671.84
2022-08-03T11:24:42.591Z,100676.13
2022-08-03T11:27:22.442Z,100666.69
2022-08-03T11:30:10.751Z,100671.38
2022-08-03T11:32:46.616Z,100674.34
2022-08-03T11:35:26.994Z,100695.59
2022-08-03T11:38:06.631Z,100689.34
2022-08-03T11:40:51.598Z,100705.66
2022-08-03T11:43:36.791Z,100707.91
2022-08-03T11:46:09.203Z,100712.75
2022-08-03T11:48:46.016Z,100697.66
2022-08-03T11:51:26.310Z,100704.34
2022-08-03T11:54:08.687Z,100660.25
2022-08-03T11:56:47.417Z,100665.09
2022-08-03T11:59:22.298Z,100740.19
2022-08-03T12:02:07.801Z,100734.88
2022-08-03T12:05:02.863Z,100737.25
2022-08-03T12:08:04.316Z,100753.41
2022-08-03T12:10:27.393Z,100751.03
2022-08-03T12:13:01.605Z,100758.97
2022-08-03T12:15:37.719Z,100754.94
2022-08-03T12:18:20.050Z,100777.94
2022-08-03T12:20:53.324Z,100772.91
2022-08-03T12:23:24.772Z,100769.06
2022-08-03T12:26:05.899Z,100722.25
2022-08-03T12:28:38.554Z,100791.16
2022-08-03T12:31:11.210Z,100791.78
2022-08-03T12:34:09.758Z,100800.44
2022-08-03T12:36:51.928Z,100795.16
2022-08-03T12:39:27.047Z,100731.91
2022-08-03T12:41:59.124Z,100808.97
2022-08-03T12:44:38.127Z,100806.00
2022-08-03T12:47:11.896Z,100810.72
2022-08-03T12:49:52.374Z,100757.41
2022-08-03T12:52:25.439Z,100812.00
2022-08-03T12:54:58.835Z,100808.69
2022-08-03T12:57:50.556Z,100821.66
2022-08-03T13:00:29.476Z,100828.31
2022-08-03T13:03:38.637Z,100768.72
2022-08-03T13:06:01.747Z,100801.81
2022-08-03T13:08:33.577Z,100844.13
2022-08-03T13:11:52.542Z,100850.47
2022-08-03T13:14:16.822Z,100842.91
2022-08-03T13:16:51.924Z,100843.78
2022-08-03T13:19:23.250Z,100846.22
2022-08-03T13:22:04.018Z,100847.31
2022-08-03T13:24:36.117Z,100844.59
2022-08-03T13:28:02.423Z,100848.34
2022-08-03T13:30:00.567Z,100844.59
2022-08-03T13:32:32.224Z,100854.63
2022-08-03T13:35:04.275Z,100850.03
2022-08-03T13:37:36.698Z,100850.03
2022-08-03T13:40:11.734Z,100852.13
2022-08-03T13:42:43.837Z,100847.31
2022-08-03T13:45:15.174Z,100841.50
2022-08-03T13:47:46.535Z,100852.13
2022-08-03T13:50:18.188Z,100852.00
2022-08-03T13:52:49.804Z,100856.25
2022-08-03T13:55:21.150Z,100858.03
2022-08-03T13:58:18.927Z,100845.09
2022-08-03T14:00:44.481Z,100855.09
2022-08-03T14:03:15.815Z,100860.22
2022-08-03T14:05:48.854Z,100854.91
2022-08-03T14:08:20.342Z,100865.41
2022-08-03T14:10:51.959Z,100859.75
2022-08-03T14:13:24.001Z,100868.78
2022-08-03T14:15:57.095Z,100880.28
2022-08-03T14:18:33.489Z,100864.38
2022-08-03T14:21:07.620Z,100886.63
2022-08-03T14:23:40.093Z,100879.47
2022-08-03T14:26:13.446Z,100887.59
2022-08-03T14:28:44.813Z,100895.19
2022-08-03T14:32:11.211Z,100893.13
2022-08-03T14:34:08.213Z,100893.19
2022-08-03T14:36:39.594Z,100891.16
2022-08-03T14:39:10.970Z,100898.28
2022-08-03T14:41:42.232Z,100897.03
2022-08-03T14:44:13.624Z,100901.25
2022-08-03T14:46:44.818Z,100895.63
2022-08-03T14:50:38.677Z,100901.09
2022-08-03T14:52:09.035Z,100908.84
2022-08-03T14:54:40.695Z,100914.25
2022-08-03T14:57:12.034Z,100925.50
2022-08-03T14:59:56.317Z,100930.31
2022-08-03T15:02:30.215Z,100935.13
2022-08-03T15:05:01.677Z,100938.25
2022-08-03T15:07:33.844Z,100938.88
2022-08-03T15:10:05.308Z,100927.72
2022-08-03T15:12:36.941Z,100938.13
2022-08-03T15:15:08.733Z,100942.91
2022-08-03T15:17:40.086Z,100957.69
2022-08-03T15:20:43.318Z,100965.63
2022-08-03T15:23:17.302Z,100892.28
2022-08-03T15:26:28.792Z,100955.25
2022-08-03T15:28:40.988Z,100954.41
2022-08-03T15:31:12.369Z,100953.16
2022-08-03T15:33:54.279Z,100878.66
2022-08-03T15:36:25.949Z,100918.72
2022-08-03T15:38:57.323Z,100942.38
2022-08-03T15:41:28.732Z,100947.81
2022-08-03T15:44:00.957Z,100941.56
2022-08-03T15:46:32.995Z,100942.81
2022-08-03T15:49:04.334Z,100935.97
2022-08-03T15:51:35.718Z,100939.91
2022-08-03T15:54:09.643Z,100871.78
2022-08-03T15:56:43.132Z,100929.06
2022-08-03T15:59:14.709Z,100933.22
2022-08-03T16:01:45.963Z,100923.34
2022-08-03T16:04:17.688Z,100905.72
2022-08-03T16:06:49.105Z,100905.91
2022-08-03T16:09:24.400Z,100898.66
2022-08-03T16:12:15.611Z,100903.19
2022-08-03T16:14:52.902Z,100894.88
2022-08-03T16:17:25.832Z,100899.03
2022-08-03T16:19:56.784Z,100896.47
2022-08-03T16:22:28.977Z,100875.56
2022-08-03T16:25:01.612Z,100889.09
2022-08-03T16:27:58.423Z,100816.19
2022-08-03T16:30:25.302Z,100868.31
2022-08-03T16:32:56.391Z,100870.97
2022-08-03T16:35:27.922Z,100867.72
2022-08-03T16:37:59.440Z,100861.41
2022-08-03T16:40:30.783Z,100853.38
2022-08-03T16:43:02.034Z,100845.06
2022-08-03T16:45:33.951Z,100837.56
2022-08-03T16:48:07.451Z,100837.75
2022-08-03T16:50:39.279Z,100830.91
2022-08-03T16:53:12.823Z,100790.69
2022-08-03T16:55:53.737Z,100818.03
2022-08-03T16:58:41.581Z,100800.88
2022-08-03T17:01:22.038Z,100715.97
2022-08-03T17:04:04.494Z,100745.84
2022-08-03T17:06:44.994Z,100762.25
2022-08-03T17:09:20.760Z,100799.03
2022-08-03T17:11:53.728Z,100732.41
2022-08-03T17:14:28.551Z,100820.22
2022-08-03T17:17:03.747Z,100762.31
2022-08-03T17:19:41.523Z,100726.41
2022-08-03T17:22:25.085Z,100804.84
2022-08-03T17:24:56.839Z,100801.09
2022-08-03T17:28:48.435Z,100795.69
2022-08-03T17:30:25.208Z,100789.44
2022-08-03T17:32:57.923Z,100787.81
2022-08-03T17:35:36.559Z,100781.97
2022-08-03T17:38:14.435Z,100769.75
2022-08-03T17:40:50.249Z,100765.78
2022-08-03T17:44:12.762Z,100766.63
2022-08-03T17:46:16.215Z,100761.00
2022-08-03T17:48:51.460Z,100771.81
2022-08-03T17:51:46.127Z,100728.28
2022-08-03T17:54:37.611Z,100761.28
2022-08-03T17:58:02.855Z,100749.06
2022-08-03T18:00:55.784Z,100756.69
2022-08-03T18:03:59.429Z,100759.41
2022-08-03T18:06:33.555Z,100763.78
2022-08-03T18:10:05.690Z,100760.03
2022-08-03T18:12:00.970Z,100714.78
2022-08-03T18:14:57.272Z,100689.06
2022-08-03T18:17:55.683Z,100709.16
2022-08-03T18:20:34.813Z,100754.00
2022-08-03T18:23:25.062Z,100749.66
2022-08-03T18:26:12.148Z,100756.69
2022-08-03T18:28:45.257Z,100625.59
2022-08-03T18:32:00.207Z,100701.91
2022-08-03T18:34:17.950Z,100747.66
2022-08-03T18:37:07.201Z,100738.09
2022-08-03T18:39:50.164Z,100675.16
2022-08-03T18:42:26.381Z,100745.13
2022-08-03T18:44:58.287Z,100742.19
2022-08-03T18:48:26.968Z,100665.88
2022-08-03T18:51:11.995Z,100733.06
2022-08-03T18:54:51.707Z,100711.91
2022-08-03T18:57:05.453Z,100714.78
2022-08-03T18:59:48.397Z,100728.50
2022-08-03T19:02:37.817Z,100723.31
2022-08-03T19:05:12.236Z,100724.75
2022-08-03T19:07:58.438Z,100700.66
2022-08-03T19:10:39.072Z,100646.78
2022-08-03T19:13:20.491Z,100661.50
2022-08-03T19:18:59.176Z,100693.22
2022-08-03T19:21:32.435Z,100719.78
2022-08-03T19:24:09.893Z,100663.78
2022-08-03T19:26:42.889Z,100720.63
2022-08-03T19:29:20.465Z,100722.72
2022-08-03T19:31:59.397Z,100704.66
2022-08-03T19:34:34.240Z,100665.25
2022-08-03T19:37:13.168Z,100728.94
2022-08-03T19:39:56.623Z,100726.25
2022-08-03T19:42:42.768Z,100590.75
2022-08-03T19:45:23.495Z,100653.44
2022-08-03T19:48:19.513Z,100715.44
2022-08-03T19:50:56.248Z,100701.94
2022-08-03T19:53:35.199Z,100702.78
2022-08-03T19:56:08.679Z,100702.78
2022-08-03T19:58:41.996Z,100702.16
2022-08-03T20:01:19.658Z,100702.78
2022-08-03T20:03:54.053Z,100694.06
2022-08-03T20:06:26.354Z,100690.34
2022-08-03T20:08:58.752Z,100686.19
2022-08-03T20:11:30.395Z,100681.84
2022-08-03T20:14:20.892Z,100687.44
2022-08-03T20:16:57.959Z,100682.88
2022-08-03T20:19:32.749Z,100673.09
2022-08-03T20:22:07.532Z,100629.34
2022-08-03T20:24:53.090Z,100668.75
2022-08-03T20:27:30.337Z,100681.22
2022-08-03T20:30:07.583Z,100683.31
2022-08-03T20:32:40.303Z,100683.31
2022-08-03T20:35:12.555Z,100682.47
2022-08-03T20:37:43.895Z,100683.72
2022-08-03T20:40:15.470Z,100671.88
2022-08-03T20:42:46.883Z,100643.44
2022-08-03T20:46:00.232Z,100672.94
2022-08-03T20:48:11.428Z,100668.56
2022-08-03T20:50:48.387Z,100672.94
2022-08-03T20:53:57.123Z,100677.06
2022-08-03T20:56:11.997Z,100679.16
2022-08-03T21:01:38.878Z,100689.13
2022-08-03T21:04:13.528Z,100687.88
2022-08-03T21:06:53.132Z,100621.44
2022-08-03T21:09:33.395Z,100683.75
2022-08-03T21:12:20.372Z,100611.09
2022-08-03T21:13:07.827Z,100675.84
2022-08-03T21:13:09.393Z,100691.56
2022-08-03T21:16:12.687Z,100686.19
2022-08-03T21:18:16.020Z,100604.47
2022-08-03T21:20:48.920Z,100685.38
2022-08-03T21:23:45.415Z,100680.34
2022-08-03T21:26:14.950Z,100669.16
2022-08-03T21:28:47.334Z,100673.72
2022-08-03T21:31:25.617Z,100672.50
2022-08-03T21:34:00.021Z,100600.13
2022-08-03T21:36:34.052Z,100626.44
2022-08-03T21:39:09.526Z,100603.63
2022-08-03T21:41:42.885Z,100596.78
2022-08-03T21:44:14.630Z,100658.00
2022-08-03T21:46:47.396Z,100581.19
2022-08-03T21:50:06.134Z,100628.31
2022-08-03T21:52:12.889Z,100670.00
2022-08-03T21:54:46.710Z,100578.91
2022-08-03T21:57:30.176Z,100599.69
2022-08-03T22:00:16.066Z,100678.72
2022-08-03T22:02:58.414Z,100594.91
2022-08-03T22:05:43.316Z,100675.81
2022-08-03T22:08:17.049Z,100684.09
2022-08-03T22:10:50.507Z,100681.41
2022-08-03T22:13:42.863Z,100687.03
2022-08-03T22:16:15.316Z,100686.41
2022-08-03T22:18:48.010Z,100702.16
2022-08-03T22:21:27.896Z,100696.38
2022-08-03T22:24:08.594Z,100550.47
2022-08-03T22:27:02.911Z,100689.72
2022-08-03T22:29:38.661Z,100630.78
2022-08-03T22:32:10.557Z,100687.88
2022-08-03T22:34:44.284Z,100684.88
2022-08-03T22:37:20.131Z,100664.59
2022-08-03T22:39:53.442Z,100693.06
2022-08-03T22:42:27.521Z,100689.09
2022-08-03T22:44:58.735Z,100680.16
2022-08-03T22:47:30.637Z,100683.69
2022-08-03T22:50:31.793Z,100683.69
2022-08-03T22:52:56.479Z,100691.38
2022-08-03T22:55:28.797Z,100696.97
2022-08-03T22:58:00.409Z,100691.97
2022-08-03T23:00:31.660Z,100703.59
2022-08-03T23:03:07.878Z,100701.72
2022-08-03T23:06:00.347Z,100719.38
2022-08-03T23:08:34.434Z,100647.94
2022-08-03T23:11:10.212Z,100660.84
2022-08-03T23:13:43.223Z,100740.97
2022-08-03T23:16:15.158Z,100735.63
2022-08-03T23:19:17.177Z,100747.88
2022-08-03T23:22:02.226Z,100686.19
2022-08-03T23:24:38.552Z,100760.94
2022-08-03T23:27:10.895Z,100754.50
2022-08-03T23:29:45.315Z,100759.50
2022-08-03T23:32:17.753Z,100745.75
2022-08-03T23:35:10.991Z,100755.91
2022-08-03T23:38:03.926Z,100770.88
2022-08-03T23:40:35.513Z,100764.44
2022-08-03T23:43:08.472Z,100695.34
2022-08-03T23:45:49.924Z,100771.69
2022-08-03T23:48:21.230Z,100772.91
2022-08-03T23:51:07.609Z,100757.94
2022-08-03T23:54:02.361Z,100716.03
2022-08-03T23:56:47.850Z,100777.63
2022-08-03T23:59:37.162Z,100793.63
